Hovedside
METAR-TAF:

METAR-TAF

Lufthavner :

Åre Östersund lufthavn

Östersund-Frösön, Sverige

breddegrad: 63-11N, lengdegrad: 014-30E, høyde over havet: 376 m

Gjeldene værobservasjon

Denne rapporten ble laget for 23 minutter siden, klokken 05:20 UTC
Vind 8 kt fra Nordøst
Temperatur -4°C
Luftfuktighet 93%
Trykk 992 hPa
Sikt: 1200 m
Få skyer i en høyde av 700 ft
Spredte skyer i en høyde av 1000 ft
Brutte skyer i en høyde av 1400 ft
lett snø

METAR: ESNZ 290520Z 05008KT 1200 R12/P1500N R30/P1500N -SN FEW007 SCT010 BKN014 M04/M05 Q0992

Tid: 06:43 (05:43 UTC)

Varsel

Denne rapporten ble laget for 13 minutter siden, klokken 05:30 UTC
Varsel gyldig fra 29. klokken 06 UTC til 29. klokken 15 UTC
Vind 12 kt fra Nordøst
Sikt: 5000 m
Brutte skyer i en høyde av 1500 ft
lett snø
Midlertidig
fra 29. klokken 06 UTC til 29. klokken 12 UTC
Sikt: 1200 m
i en høyde av 400 ft
snø

TAF: ESNZ 290530Z 2906/2915 05012KT 5000 -SN BKN015 TEMPO 2906/2912 1200 SN VV004

Værobservasjoner og værvarsel for over 4000 flyplasser (METAR- og TAF-rapporter).

Tilgjengelige stasjoner er representert av de røde og gule prikkene på kartet.

Hold musepekeren over prikken for å se navnet på stasjonen.

Klikk så for å se værobservasjoner og -varsler.

For å forandre kartet kan du klikke på den grønne knappen med svart kryss for å zoome inn, på den grønne knappen med strek for å zoome ut, eller på de grønne pilene for å se tilstøtende kart.


METAR-TAF: